createdAt,value
2022-10-27T00:01:24.887Z,63.46
2022-10-27T00:03:52.582Z,65.63
2022-10-27T00:06:19.322Z,63.22
2022-10-27T00:08:46.172Z,63.58
2022-10-27T00:11:12.942Z,64.19
2022-10-27T00:13:39.915Z,63.99
2022-10-27T00:16:10.829Z,64.18
2022-10-27T00:18:37.857Z,64.05
2022-10-27T00:21:08.102Z,61.63
2022-10-27T00:23:35.755Z,63.18
2022-10-27T00:26:02.830Z,63.55
2022-10-27T00:28:30.444Z,62.34
2022-10-27T00:31:05.963Z,64.19
2022-10-27T00:33:33.572Z,64.62
2022-10-27T00:36:08.374Z,63.96
2022-10-27T00:38:35.763Z,63.34
2022-10-27T00:41:03.001Z,62.02
2022-10-27T00:43:32.945Z,62.52
2022-10-27T00:46:41.345Z,63.32
2022-10-27T00:49:14.123Z,63.26
2022-10-27T00:51:50.515Z,62.62
2022-10-27T00:54:20.093Z,63.25
2022-10-27T00:56:51.053Z,64.67
2022-10-27T00:59:19.752Z,67.85
2022-10-27T01:01:48.717Z,68.04
2022-10-27T01:04:20.461Z,66.13
2022-10-27T01:06:47.330Z,68.75
2022-10-27T01:09:14.573Z,69.68
2022-10-27T01:11:41.425Z,70.52
2022-10-27T01:14:08.286Z,70.32
2022-10-27T01:16:56.488Z,68.74
2022-10-27T01:19:29.062Z,68.34
2022-10-27T01:22:38.633Z,66.79
2022-10-27T01:25:23.901Z,66.81
2022-10-27T01:28:15.623Z,67.41
2022-10-27T01:30:54.359Z,67.47
2022-10-27T01:33:30.695Z,66.40
2022-10-27T01:36:06.037Z,67.61
2022-10-27T01:38:43.374Z,66.94
2022-10-27T01:41:23.598Z,66.46
2022-10-27T01:43:54.961Z,64.94
2022-10-27T01:46:21.903Z,66.07
2022-10-27T01:48:49.359Z,66.49
2022-10-27T01:51:16.226Z,65.11
2022-10-27T01:53:48.702Z,64.87
2022-10-27T01:56:46.364Z,64.12
2022-10-27T01:59:34.799Z,65.38
2022-10-27T02:02:04.590Z,66.41
2022-10-27T02:04:42.072Z,68.16
2022-10-27T02:07:14.778Z,67.22
2022-10-27T02:09:47.138Z,66.41
2022-10-27T02:12:23.189Z,66.78
2022-10-27T02:14:53.415Z,68.33
2022-10-27T02:17:23.525Z,69.82
2022-10-27T02:19:52.880Z,68.22
2022-10-27T02:22:20.841Z,67.55
2022-10-27T02:24:47.747Z,67.22
2022-10-27T02:27:34.764Z,67.08
2022-10-27T02:30:02.651Z,67.68
2022-10-27T02:32:30.511Z,66.49
2022-10-27T02:34:58.408Z,65.84
2022-10-27T02:37:37.929Z,67.15
2022-10-27T02:40:05.345Z,67.72
2022-10-27T02:42:32.106Z,66.31
2022-10-27T02:44:58.946Z,67.50
2022-10-27T02:47:25.830Z,70.78
2022-10-27T02:49:52.551Z,70.59
2022-10-27T02:52:19.554Z,69.57
2022-10-27T02:54:46.425Z,68.52
2022-10-27T02:57:13.178Z,67.00
2022-10-27T02:59:39.949Z,67.50
2022-10-27T03:02:06.788Z,67.01
2022-10-27T03:04:33.591Z,66.34
2022-10-27T03:07:00.391Z,67.26
2022-10-27T03:09:27.234Z,67.03
2022-10-27T03:11:54.110Z,68.22
2022-10-27T03:14:20.939Z,67.90
2022-10-27T03:16:47.864Z,69.65
2022-10-27T03:19:14.611Z,69.53
2022-10-27T03:21:41.382Z,72.19
2022-10-27T03:24:08.210Z,73.91
2022-10-27T03:26:34.949Z,72.81
2022-10-27T03:29:01.786Z,71.53
2022-10-27T03:31:29.039Z,70.87
2022-10-27T03:33:55.797Z,71.06
2022-10-27T03:36:22.746Z,70.65
2022-10-27T03:38:49.615Z,69.45
2022-10-27T03:41:16.437Z,68.32
2022-10-27T03:43:43.244Z,69.89
2022-10-27T03:46:10.928Z,73.78
2022-10-27T03:48:37.998Z,74.01
2022-10-27T03:51:04.863Z,74.25
2022-10-27T03:53:31.624Z,73.51
2022-10-27T03:55:58.411Z,72.91
2022-10-27T03:58:25.223Z,71.11
2022-10-27T04:00:52.068Z,71.63
2022-10-27T04:03:18.904Z,72.28
2022-10-27T04:05:50.249Z,72.39
2022-10-27T04:08:17.024Z,72.15
2022-10-27T04:10:43.853Z,71.58
2022-10-27T04:13:10.724Z,72.45
2022-10-27T04:15:37.552Z,73.55
2022-10-27T04:18:04.667Z,74.40
2022-10-27T04:20:31.635Z,74.93
2022-10-27T04:22:59.927Z,74.50
2022-10-27T04:25:27.025Z,73.60
2022-10-27T04:28:07.649Z,72.25
2022-10-27T04:30:34.983Z,70.56
2022-10-27T04:33:01.884Z,73.46
2022-10-27T04:35:29.358Z,74.62
2022-10-27T04:37:57.036Z,74.89
2022-10-27T04:40:24.279Z,74.92
2022-10-27T04:42:51.903Z,73.70
2022-10-27T04:45:19.107Z,74.27
2022-10-27T04:47:49.031Z,73.41
2022-10-27T04:50:17.333Z,72.98
2022-10-27T04:52:57.562Z,74.07
2022-10-27T04:55:25.801Z,72.59
2022-10-27T04:57:53.273Z,74.88
2022-10-27T05:00:20.904Z,74.03
2022-10-27T05:02:57.478Z,73.05
2022-10-27T05:05:26.182Z,72.83
2022-10-27T05:07:54.992Z,72.84
2022-10-27T05:10:22.192Z,71.68
2022-10-27T05:12:49.224Z,71.73
2022-10-27T05:15:16.433Z,71.61
2022-10-27T05:17:43.326Z,71.40
2022-10-27T05:20:10.616Z,71.17
2022-10-27T05:22:38.453Z,71.87
2022-10-27T05:25:07.299Z,71.60
2022-10-27T05:27:34.072Z,71.31
2022-10-27T05:30:00.801Z,70.83
2022-10-27T05:32:27.613Z,70.67
2022-10-27T05:34:54.371Z,70.22
2022-10-27T05:37:21.338Z,70.25
2022-10-27T05:39:48.188Z,68.69
2022-10-27T05:42:15.066Z,67.89
2022-10-27T05:44:41.914Z,67.49
2022-10-27T05:47:08.879Z,66.38
2022-10-27T05:49:35.672Z,65.44
2022-10-27T05:52:02.390Z,64.87
2022-10-27T05:54:29.225Z,64.93
2022-10-27T05:56:55.932Z,65.76
2022-10-27T05:59:22.638Z,64.67
2022-10-27T06:01:49.529Z,64.33
2022-10-27T06:04:16.451Z,64.52
2022-10-27T06:06:43.256Z,64.19
2022-10-27T06:09:10.137Z,64.33
2022-10-27T06:11:36.907Z,63.78
2022-10-27T06:14:03.706Z,62.80
2022-10-27T06:16:30.499Z,62.19
2022-10-27T06:18:57.350Z,61.69
2022-10-27T06:21:24.149Z,61.73
2022-10-27T06:23:51.264Z,62.21
2022-10-27T06:26:18.303Z,63.10
2022-10-27T06:28:45.073Z,63.51
2022-10-27T06:31:11.924Z,64.71
2022-10-27T06:33:38.646Z,62.85
2022-10-27T06:36:05.641Z,62.09
2022-10-27T06:38:32.448Z,61.31
2022-10-27T06:40:59.224Z,61.54
2022-10-27T06:43:25.971Z,61.00
2022-10-27T06:45:53.356Z,61.13
2022-10-27T06:48:20.137Z,61.08
2022-10-27T06:50:46.948Z,60.16
2022-10-27T06:53:13.972Z,58.83
2022-10-27T06:55:40.727Z,58.87
2022-10-27T06:58:07.437Z,58.47
2022-10-27T07:00:34.325Z,56.16
2022-10-27T07:03:06.448Z,56.82
2022-10-27T07:05:33.228Z,55.10
2022-10-27T07:08:00.138Z,55.35
2022-10-27T07:10:26.985Z,54.55
2022-10-27T07:13:01.922Z,55.59
2022-10-27T07:15:31.172Z,55.24
2022-10-27T07:18:01.034Z,55.90
2022-10-27T07:20:30.431Z,54.90
2022-10-27T07:22:59.934Z,53.78
2022-10-27T07:25:28.409Z,55.52
2022-10-27T07:27:55.815Z,55.99
2022-10-27T07:30:25.410Z,55.63
2022-10-27T07:32:52.178Z,54.94
2022-10-27T07:35:19.024Z,54.19
2022-10-27T07:37:47.053Z,53.95
2022-10-27T07:40:16.350Z,51.48
2022-10-27T07:42:47.929Z,52.55
2022-10-27T07:45:16.512Z,51.93
2022-10-27T07:47:48.928Z,52.07
2022-10-27T07:50:17.798Z,52.15
2022-10-27T07:52:46.894Z,52.04
2022-10-27T07:55:15.559Z,51.34
2022-10-27T07:57:43.768Z,51.42
2022-10-27T08:00:17.004Z,51.21
2022-10-27T08:02:44.680Z,50.41
2022-10-27T08:05:11.789Z,49.21
2022-10-27T08:07:39.180Z,50.42
2022-10-27T08:10:06.256Z,50.07
2022-10-27T08:12:33.184Z,49.31
2022-10-27T08:14:59.919Z,49.87
2022-10-27T08:17:26.809Z,49.37
2022-10-27T08:19:53.524Z,48.92
2022-10-27T08:22:20.347Z,49.14
2022-10-27T08:24:47.159Z,48.90
2022-10-27T08:27:13.876Z,48.03
2022-10-27T08:29:40.647Z,47.77
2022-10-27T08:32:07.407Z,47.48
2022-10-27T08:34:34.141Z,47.05
2022-10-27T08:37:00.888Z,46.86
2022-10-27T08:39:27.748Z,46.68
2022-10-27T08:42:38.791Z,45.98
2022-10-27T08:45:11.099Z,45.67
2022-10-27T08:47:38.067Z,44.91
2022-10-27T08:50:09.776Z,44.54
2022-10-27T08:52:47.875Z,44.79
2022-10-27T08:55:14.669Z,44.58
2022-10-27T08:57:53.254Z,44.76
2022-10-27T09:00:20.278Z,44.81
2022-10-27T09:02:56.151Z,44.06
2022-10-27T09:05:41.022Z,43.38
2022-10-27T09:08:20.119Z,42.98
2022-10-27T09:11:16.830Z,42.50
2022-10-27T09:14:11.455Z,42.79
2022-10-27T09:16:47.926Z,41.46
2022-10-27T09:19:30.276Z,41.64
2022-10-27T09:21:57.736Z,41.97
2022-10-27T09:24:28.460Z,41.86
2022-10-27T09:26:58.813Z,41.24
2022-10-27T09:29:25.615Z,41.12
2022-10-27T09:32:03.249Z,42.24
2022-10-27T09:34:39.803Z,42.65
2022-10-27T09:37:14.372Z,41.69
2022-10-27T09:39:46.941Z,40.53
2022-10-27T09:42:14.266Z,40.58
2022-10-27T09:44:51.898Z,40.49
2022-10-27T09:47:20.312Z,40.29
2022-10-27T09:49:47.781Z,39.78
2022-10-27T09:52:42.929Z,39.20
2022-10-27T09:55:10.695Z,38.93
2022-10-27T09:57:40.804Z,38.46
2022-10-27T10:00:09.574Z,38.58
2022-10-27T10:02:45.708Z,38.23
2022-10-27T10:05:23.134Z,38.59
2022-10-27T10:07:50.937Z,39.19
2022-10-27T10:10:28.712Z,38.61
2022-10-27T10:13:02.679Z,38.20
2022-10-27T10:15:33.213Z,37.34
2022-10-27T10:18:01.935Z,35.96
2022-10-27T10:23:27.455Z,35.24
2022-10-27T10:25:57.800Z,34.62
2022-10-27T10:29:05.718Z,34.67
2022-10-27T10:31:32.658Z,34.86
2022-10-27T10:34:05.480Z,34.33
2022-10-27T10:36:38.016Z,34.60
2022-10-27T10:39:24.763Z,34.24
2022-10-27T10:42:24.028Z,34.62
2022-10-27T10:45:10.342Z,34.39
2022-10-27T10:47:37.928Z,34.37
2022-10-27T10:50:12.596Z,34.51
2022-10-27T10:52:40.209Z,33.90
2022-10-27T10:55:17.133Z,34.04
2022-10-27T10:57:45.689Z,33.19
2022-10-27T11:00:16.928Z,33.24
2022-10-27T11:02:56.694Z,33.09
2022-10-27T11:05:31.197Z,33.39
2022-10-27T11:07:58.767Z,34.16
2022-10-27T11:10:30.856Z,34.97
2022-10-27T11:13:24.004Z,35.30
2022-10-27T11:16:03.447Z,36.00
2022-10-27T11:18:42.227Z,36.25
2022-10-27T11:21:31.831Z,35.98
2022-10-27T11:24:27.901Z,36.74
2022-10-27T11:26:59.102Z,36.06
2022-10-27T11:29:32.199Z,35.62
2022-10-27T11:32:14.095Z,35.72
2022-10-27T11:34:51.803Z,36.40
2022-10-27T11:37:28.957Z,35.39
2022-10-27T11:40:01.501Z,35.15
2022-10-27T11:42:36.640Z,35.64
2022-10-27T11:45:25.121Z,35.53
2022-10-27T11:48:00.123Z,35.96
2022-10-27T11:50:56.756Z,36.61
2022-10-27T11:53:23.758Z,36.82
2022-10-27T11:56:24.449Z,36.94
2022-10-27T11:58:54.294Z,36.88
2022-10-27T12:01:39.598Z,37.14
2022-10-27T12:07:30.501Z,38.16
2022-10-27T12:16:17.451Z,37.68
2022-10-27T12:18:44.171Z,36.94
2022-10-27T12:21:20.512Z,36.95
2022-10-27T12:24:11.692Z,37.25
2022-10-27T12:26:41.343Z,36.79
2022-10-27T12:29:09.618Z,37.05
2022-10-27T12:31:44.468Z,37.47
2022-10-27T12:34:15.307Z,36.84
2022-10-27T12:37:09.483Z,36.94
2022-10-27T12:40:09.602Z,36.36
2022-10-27T12:43:15.376Z,36.13
2022-10-27T12:45:44.914Z,35.55
2022-10-27T12:48:55.977Z,34.98
2022-10-27T12:51:28.337Z,34.97
2022-10-27T12:54:25.881Z,34.88
2022-10-27T12:57:22.369Z,34.83
2022-10-27T13:00:07.885Z,34.57
2022-10-27T13:02:46.242Z,34.31
2022-10-27T13:05:13.079Z,34.04
2022-10-27T13:07:57.812Z,34.14
2022-10-27T13:10:31.130Z,33.67
2022-10-27T13:13:17.464Z,34.79
2022-10-27T13:16:03.170Z,35.50
2022-10-27T13:18:32.533Z,35.74
2022-10-27T13:21:13.192Z,35.60
2022-10-27T13:24:16.847Z,35.34
2022-10-27T13:27:09.217Z,35.81
2022-10-27T13:29:47.982Z,35.62
2022-10-27T13:32:20.787Z,35.46
2022-10-27T13:35:13.435Z,34.90
2022-10-27T13:37:55.829Z,35.12
2022-10-27T13:40:22.762Z,35.63
2022-10-27T13:42:57.128Z,36.00
2022-10-27T13:45:26.982Z,36.18
2022-10-27T13:48:09.029Z,35.36
2022-10-27T13:50:38.027Z,35.02
2022-10-27T13:53:16.805Z,34.71
2022-10-27T13:55:48.160Z,35.37
2022-10-27T13:58:21.091Z,35.36
2022-10-27T14:01:14.810Z,35.22
2022-10-27T14:03:44.747Z,35.31
2022-10-27T14:06:14.761Z,35.33
2022-10-27T14:08:44.257Z,35.72
2022-10-27T14:11:18.478Z,35.40
2022-10-27T14:13:49.401Z,35.47
2022-10-27T14:16:23.937Z,35.73
2022-10-27T14:19:14.826Z,35.47
2022-10-27T14:21:47.614Z,35.75
2022-10-27T14:24:48.447Z,35.89
2022-10-27T14:27:18.126Z,36.54
2022-10-27T14:29:45.627Z,36.55
2022-10-27T14:32:21.704Z,36.90
2022-10-27T14:34:49.855Z,37.18
2022-10-27T14:37:35.639Z,37.90
2022-10-27T14:40:02.993Z,37.92
2022-10-27T14:42:33.002Z,38.27
2022-10-27T14:45:03.432Z,38.26
2022-10-27T14:47:32.551Z,38.08
2022-10-27T14:50:06.456Z,38.49
2022-10-27T14:52:45.887Z,38.60
2022-10-27T14:55:39.953Z,38.27
2022-10-27T14:58:20.175Z,38.31
2022-10-27T15:00:51.043Z,38.38
2022-10-27T15:03:17.843Z,38.69
2022-10-27T15:05:48.384Z,38.76
2022-10-27T15:08:21.567Z,39.16
2022-10-27T15:10:50.808Z,39.24
2022-10-27T15:13:20.443Z,38.92
2022-10-27T15:15:48.994Z,39.34
2022-10-27T15:18:27.872Z,39.47
2022-10-27T15:20:55.949Z,39.91
2022-10-27T15:23:23.273Z,39.77
2022-10-27T15:25:56.863Z,40.44
2022-10-27T15:28:29.721Z,40.21
2022-10-27T15:30:56.844Z,40.75
2022-10-27T15:33:28.179Z,40.57
2022-10-27T15:35:58.170Z,40.25
2022-10-27T15:38:27.605Z,40.62
2022-10-27T15:41:06.510Z,40.71
2022-10-27T15:43:33.565Z,40.55
2022-10-27T15:46:22.226Z,40.61
2022-10-27T15:49:11.122Z,41.20
2022-10-27T15:51:53.286Z,41.01
2022-10-27T15:54:34.946Z,40.67
2022-10-27T15:57:05.763Z,40.48
2022-10-27T15:59:33.962Z,40.85
2022-10-27T16:02:22.112Z,41.01
2022-10-27T16:04:50.107Z,40.81
2022-10-27T16:07:16.983Z,41.59
2022-10-27T16:09:47.883Z,41.47
2022-10-27T16:12:30.275Z,42.01
2022-10-27T16:15:00.230Z,42.23
2022-10-27T16:17:49.962Z,42.37
2022-10-27T16:20:26.966Z,42.30
2022-10-27T16:22:54.685Z,42.14
2022-10-27T16:25:28.705Z,42.18
2022-10-27T16:27:55.551Z,43.22
2022-10-27T16:30:23.595Z,44.17
2022-10-27T16:33:04.330Z,44.75
2022-10-27T16:35:31.269Z,45.03
2022-10-27T16:37:58.761Z,45.60
2022-10-27T16:40:25.662Z,46.23
2022-10-27T16:42:55.404Z,46.09
2022-10-27T16:45:22.615Z,45.87
2022-10-27T16:47:50.782Z,45.39
2022-10-27T16:50:22.630Z,45.19
2022-10-27T16:52:56.421Z,45.77
2022-10-27T16:55:23.704Z,45.86
2022-10-27T16:57:50.629Z,45.96
2022-10-27T17:00:17.667Z,46.17
2022-10-27T17:02:44.477Z,45.64
2022-10-27T17:05:11.236Z,45.76
2022-10-27T17:07:47.014Z,44.99
2022-10-27T17:10:16.667Z,45.44
2022-10-27T17:12:43.844Z,45.28
2022-10-27T17:15:13.663Z,45.71
2022-10-27T17:17:40.340Z,45.80
2022-10-27T17:20:07.731Z,46.24
2022-10-27T17:22:35.062Z,45.44
2022-10-27T17:25:02.039Z,45.38
2022-10-27T17:27:28.805Z,45.50
2022-10-27T17:29:56.040Z,45.45
2022-10-27T17:32:22.712Z,45.45
2022-10-27T17:34:49.483Z,45.22
2022-10-27T17:37:16.275Z,44.98
2022-10-27T17:39:43.168Z,44.98
2022-10-27T17:42:09.947Z,44.63
2022-10-27T17:44:36.629Z,45.74
2022-10-27T17:47:03.390Z,45.95
2022-10-27T17:49:30.266Z,46.28
2022-10-27T17:51:57.070Z,46.20
2022-10-27T17:54:23.781Z,46.31
2022-10-27T17:56:50.647Z,47.28
2022-10-27T18:11:25.821Z,48.34
2022-10-27T18:13:58.299Z,48.48
2022-10-27T18:16:30.326Z,48.75
2022-10-27T18:18:59.645Z,48.89
2022-10-27T18:21:28.441Z,49.07
2022-10-27T18:23:57.904Z,49.33
2022-10-27T18:26:26.128Z,49.89
2022-10-27T18:28:52.904Z,50.62
2022-10-27T18:31:25.376Z,51.30
2022-10-27T18:33:54.123Z,51.11
2022-10-27T18:36:23.305Z,51.31
2022-10-27T18:38:54.292Z,51.25
2022-10-27T18:41:21.957Z,51.16
2022-10-27T18:43:51.833Z,51.21
2022-10-27T18:46:20.011Z,51.26
2022-10-27T18:48:51.460Z,51.41
2022-10-27T18:51:18.376Z,51.64
2022-10-27T18:53:46.427Z,51.52
2022-10-27T18:56:18.473Z,51.61
2022-10-27T18:58:45.184Z,52.09
2022-10-27T19:01:14.520Z,52.59
2022-10-27T19:03:42.509Z,52.61
2022-10-27T19:06:12.067Z,52.42
2022-10-27T19:08:38.929Z,52.33
2022-10-27T19:11:08.414Z,52.17
2022-10-27T19:13:35.669Z,52.38
2022-10-27T19:16:03.815Z,53.11
2022-10-27T19:18:31.100Z,53.38
2022-10-27T19:21:02.894Z,53.39
2022-10-27T19:23:30.437Z,54.29
2022-10-27T19:26:15.290Z,54.09
2022-10-27T19:28:43.458Z,54.36
2022-10-27T19:31:16.114Z,53.83
2022-10-27T19:33:44.907Z,53.97
2022-10-27T19:36:14.554Z,53.66
2022-10-27T19:38:41.553Z,54.42
2022-10-27T19:41:16.532Z,53.66
2022-10-27T19:43:47.059Z,54.25
2022-10-27T19:46:19.113Z,53.42
2022-10-27T19:48:53.751Z,53.86
2022-10-27T19:51:23.559Z,53.49
2022-10-27T19:53:51.114Z,54.09
2022-10-27T19:56:18.476Z,54.24
2022-10-27T19:58:50.303Z,53.92
2022-10-27T20:01:22.774Z,53.63
2022-10-27T20:03:49.706Z,53.84
2022-10-27T20:06:17.316Z,53.80
2022-10-27T20:08:45.465Z,53.94
2022-10-27T20:11:13.529Z,53.74
2022-10-27T20:13:40.987Z,54.41
2022-10-27T20:16:09.395Z,54.79
2022-10-27T20:18:36.205Z,55.35
2022-10-27T20:21:03.051Z,55.35
2022-10-27T20:23:30.161Z,55.51
2022-10-27T20:26:24.344Z,55.43
2022-10-27T20:28:48.577Z,54.93
2022-10-27T20:31:15.274Z,55.51
2022-10-27T20:33:41.976Z,55.04
2022-10-27T20:36:11.146Z,54.82
2022-10-27T20:38:39.117Z,54.76
2022-10-27T20:41:07.498Z,55.35
2022-10-27T20:43:35.336Z,54.87
2022-10-27T20:46:03.814Z,55.45
2022-10-27T20:48:30.902Z,55.43
2022-10-27T20:51:03.551Z,55.84
2022-10-27T20:53:32.549Z,55.97
2022-10-27T20:55:59.377Z,55.44
2022-10-27T20:58:26.852Z,55.41
2022-10-27T21:00:54.025Z,55.70
2022-10-27T21:03:21.174Z,55.68
2022-10-27T21:05:47.990Z,55.78
2022-10-27T21:08:14.728Z,55.93
2022-10-27T21:10:41.522Z,55.36
2022-10-27T21:13:12.726Z,56.03
2022-10-27T21:15:40.481Z,56.04
2022-10-27T21:18:09.267Z,56.56
2022-10-27T21:20:37.595Z,56.39
2022-10-27T21:23:04.929Z,57.28
2022-10-27T21:25:31.654Z,57.45
2022-10-27T21:27:58.593Z,57.33
2022-10-27T21:30:26.059Z,57.73
2022-10-27T21:32:54.975Z,57.63
2022-10-27T21:35:23.523Z,57.58
2022-10-27T21:37:50.462Z,57.58
2022-10-27T21:40:17.286Z,57.46
2022-10-27T21:42:44.127Z,57.25
2022-10-27T21:45:12.002Z,57.62
2022-10-27T21:47:39.804Z,58.02
2022-10-27T21:50:09.939Z,58.07
2022-10-27T21:52:37.567Z,57.75
2022-10-27T21:55:05.624Z,58.47
2022-10-27T21:57:32.587Z,58.57
2022-10-27T21:59:59.311Z,58.46
2022-10-27T22:02:26.050Z,58.12
2022-10-27T22:04:52.932Z,58.46
2022-10-27T22:07:19.644Z,57.80
2022-10-27T22:09:46.396Z,58.45
2022-10-27T22:12:13.167Z,58.23
2022-10-27T22:14:40.014Z,58.31
2022-10-27T22:17:06.848Z,59.02
2022-10-27T22:19:33.659Z,59.18
2022-10-27T22:22:00.607Z,59.25
2022-10-27T22:24:27.408Z,59.33
2022-10-27T22:26:54.162Z,59.02
2022-10-27T22:29:20.881Z,59.38
2022-10-27T22:31:47.596Z,59.60
2022-10-27T22:34:14.398Z,59.23
2022-10-27T22:36:41.147Z,59.10
2022-10-27T22:39:08.008Z,59.21
2022-10-27T22:41:35.764Z,59.65
2022-10-27T22:44:02.504Z,59.37
2022-10-27T22:46:31.518Z,59.37
2022-10-27T22:48:58.374Z,59.42
2022-10-27T22:51:28.005Z,59.82
2022-10-27T22:53:56.575Z,59.41
2022-10-27T22:56:29.003Z,59.02
2022-10-27T22:58:58.555Z,58.86
2022-10-27T23:01:28.700Z,59.16
2022-10-27T23:03:57.847Z,59.46
2022-10-27T23:06:27.145Z,60.45
2022-10-27T23:08:59.937Z,59.91
2022-10-27T23:11:30.373Z,60.31
2022-10-27T23:13:57.083Z,60.13
2022-10-27T23:16:24.033Z,59.79
2022-10-27T23:18:50.742Z,60.08
2022-10-27T23:21:19.977Z,59.94
2022-10-27T23:23:46.835Z,58.90
2022-10-27T23:26:18.410Z,58.85
2022-10-27T23:28:48.876Z,58.66
2022-10-27T23:31:15.596Z,59.55
2022-10-27T23:33:42.382Z,59.28
2022-10-27T23:36:10.551Z,59.45
2022-10-27T23:38:37.520Z,59.09
2022-10-27T23:41:04.667Z,60.05
2022-10-27T23:43:31.463Z,60.63
2022-10-27T23:45:59.880Z,60.29
2022-10-27T23:48:26.622Z,59.88
2022-10-27T23:50:53.445Z,60.02
2022-10-27T23:53:20.150Z,60.70
2022-10-27T23:55:53.083Z,60.25
2022-10-27T23:58:19.992Z,60.00
